createdAt,value
2022-12-25T00:01:13.828Z,98931.85
2022-12-25T00:04:03.395Z,98935.50
2022-12-25T00:06:44.756Z,98937.80
2022-12-25T00:09:29.178Z,98939.02
2022-12-25T00:12:15.728Z,98935.24
2022-12-25T00:14:59.356Z,98936.65
2022-12-25T00:17:43.976Z,98943.01
2022-12-25T00:20:24.531Z,98940.13
2022-12-25T00:23:13.800Z,98931.17
2022-12-25T00:26:08.829Z,98934.19
2022-12-25T00:28:55.009Z,98932.85
2022-12-25T00:31:37.730Z,98929.92
2022-12-25T00:34:22.424Z,98929.77
2022-12-25T00:37:00.772Z,98936.17
2022-12-25T00:39:40.960Z,98942.01
2022-12-25T00:42:26.318Z,98940.12
2022-12-25T00:45:09.598Z,98942.41
2022-12-25T00:47:50.645Z,98947.23
2022-12-25T00:50:30.468Z,98951.48
2022-12-25T00:53:15.430Z,98954.54
2022-12-25T00:56:13.659Z,98959.50
2022-12-25T00:58:57.301Z,98971.45
2022-12-25T01:01:40.834Z,98980.31
2022-12-25T01:04:18.928Z,98982.60
2022-12-25T01:07:00.932Z,98986.71
2022-12-25T01:10:01.614Z,98989.21
2022-12-25T01:12:46.218Z,98997.61
2022-12-25T01:15:28.890Z,98996.36
2022-12-25T01:18:11.614Z,98998.23
2022-12-25T01:20:51.641Z,98996.85
2022-12-25T01:23:33.685Z,98997.52
2022-12-25T01:26:18.609Z,98999.48
2022-12-25T01:29:03.545Z,99006.34
2022-12-25T01:31:41.320Z,99010.17
2022-12-25T01:34:33.898Z,99005.09
2022-12-25T01:37:15.657Z,99005.60
2022-12-25T01:39:56.914Z,99006.58
2022-12-25T01:42:39.498Z,99003.77
2022-12-25T01:45:54.252Z,99004.48
2022-12-25T01:48:36.591Z,99003.10
2022-12-25T01:51:28.552Z,99002.75
2022-12-25T01:54:11.865Z,98998.98
2022-12-25T01:56:56.280Z,99004.20
2022-12-25T01:59:36.711Z,99009.27
2022-12-25T02:02:27.399Z,99011.85
2022-12-25T02:05:33.140Z,99016.20
2022-12-25T02:08:19.056Z,99008.70
2022-12-25T02:11:02.337Z,99003.36
2022-12-25T02:13:47.668Z,99005.42
2022-12-25T02:16:57.853Z,99002.77
2022-12-25T02:20:09.296Z,98999.60
2022-12-25T02:23:39.750Z,98998.92
2022-12-25T02:26:30.187Z,99004.98
2022-12-25T02:29:37.582Z,99010.05
2022-12-25T02:32:25.228Z,99016.54
2022-12-25T02:35:22.998Z,99019.58
2022-12-25T02:38:12.253Z,99020.80
2022-12-25T02:41:04.701Z,99022.31
2022-12-25T02:44:07.730Z,99023.51
2022-12-25T02:47:08.519Z,99022.69
2022-12-25T02:50:10.447Z,99022.20
2022-12-25T02:53:10.991Z,99025.84
2022-12-25T02:56:15.553Z,99028.21
2022-12-25T02:59:15.663Z,99032.48
2022-12-25T03:02:18.946Z,99035.89
2022-12-25T03:05:29.627Z,99035.68
2022-12-25T03:08:25.095Z,99025.97
2022-12-25T03:11:31.260Z,99028.41
2022-12-25T03:14:32.189Z,99036.18
2022-12-25T03:17:16.840Z,99041.23
2022-12-25T03:20:17.430Z,99048.96
2022-12-25T03:23:19.796Z,99055.56
2022-12-25T03:26:17.071Z,99057.40
2022-12-25T03:28:55.201Z,99059.84
2022-12-25T03:31:53.251Z,99061.20
2022-12-25T03:35:28.464Z,99066.48
2022-12-25T03:38:54.557Z,99069.10
2022-12-25T03:42:02.796Z,99070.19
2022-12-25T03:45:37.067Z,99064.71
2022-12-25T03:48:38.101Z,99065.91
2022-12-25T03:51:44.185Z,99062.05
2022-12-25T03:54:47.702Z,99062.66
2022-12-25T03:57:50.220Z,99057.59
2022-12-25T04:00:53.924Z,99060.12
2022-12-25T04:03:52.066Z,99065.88
2022-12-25T04:06:56.336Z,99066.98
2022-12-25T04:09:59.165Z,99065.88
2022-12-25T04:13:03.235Z,99069.60
2022-12-25T04:16:12.604Z,99070.40
2022-12-25T04:19:08.055Z,99072.30
2022-12-25T04:22:15.186Z,99073.66
2022-12-25T04:25:17.562Z,99077.11
2022-12-25T04:28:36.003Z,99080.79
2022-12-25T04:31:40.551Z,99089.39
2022-12-25T04:34:44.913Z,99088.50
2022-12-25T04:37:32.020Z,99076.04
2022-12-25T04:40:12.404Z,99073.42
2022-12-25T04:42:50.087Z,99072.80
2022-12-25T04:45:31.780Z,99077.63
2022-12-25T04:48:11.103Z,99088.02
2022-12-25T04:50:55.342Z,99087.42
2022-12-25T04:53:32.631Z,99093.16
2022-12-25T04:56:15.428Z,99098.47
2022-12-25T04:58:55.074Z,99104.15
2022-12-25T05:01:40.245Z,99107.93
2022-12-25T05:04:18.390Z,99108.02
2022-12-25T05:07:16.717Z,99107.53
2022-12-25T05:09:56.616Z,99111.35
2022-12-25T05:12:46.031Z,99112.39
2022-12-25T05:15:24.543Z,99122.30
2022-12-25T05:18:15.306Z,99125.29
2022-12-25T05:21:04.830Z,99127.91
2022-12-25T05:23:55.072Z,99128.52
2022-12-25T05:26:33.512Z,99122.67
2022-12-25T05:29:12.662Z,99123.80
2022-12-25T05:31:51.735Z,99126.38
2022-12-25T05:34:44.599Z,99123.08
2022-12-25T05:37:23.958Z,99125.11
2022-12-25T05:40:08.852Z,99129.13
2022-12-25T05:42:48.449Z,99128.62
2022-12-25T05:45:47.289Z,99127.27
2022-12-25T05:48:25.600Z,99136.36
2022-12-25T05:51:17.010Z,99136.21
2022-12-25T05:53:57.621Z,99134.02
2022-12-25T05:56:49.672Z,99138.59
2022-12-25T05:59:27.953Z,99142.45
2022-12-25T06:02:16.650Z,99148.16
2022-12-25T06:04:56.245Z,99154.31
2022-12-25T06:07:42.365Z,99161.75
2022-12-25T06:10:18.729Z,99161.55
2022-12-25T06:13:02.749Z,99159.86
2022-12-25T06:15:46.277Z,99165.83
2022-12-25T06:18:35.060Z,99171.29
2022-12-25T06:21:16.042Z,99180.02
2022-12-25T06:24:00.050Z,99184.14
2022-12-25T06:26:39.477Z,99183.48
2022-12-25T06:29:22.913Z,99187.92
2022-12-25T06:32:02.524Z,99194.14
2022-12-25T06:34:46.001Z,99192.98
2022-12-25T06:37:35.041Z,99191.24
2022-12-25T06:40:16.364Z,99183.04
2022-12-25T06:43:00.316Z,99184.92
2022-12-25T06:45:43.698Z,99178.42
2022-12-25T06:48:27.027Z,99174.00
2022-12-25T06:51:13.788Z,99174.80
2022-12-25T06:53:53.912Z,99169.77
2022-12-25T06:56:38.483Z,99166.14
2022-12-25T06:59:22.790Z,99168.64
2022-12-25T07:02:08.425Z,99174.71
2022-12-25T07:04:51.914Z,99173.55
2022-12-25T07:07:36.401Z,99173.56
2022-12-25T07:10:16.799Z,99172.98
2022-12-25T07:13:03.236Z,99180.83
2022-12-25T07:15:45.697Z,99190.45
2022-12-25T07:18:29.417Z,99203.25
2022-12-25T07:21:22.843Z,99199.00
2022-12-25T07:24:04.507Z,99198.94
2022-12-25T07:26:52.556Z,99197.39
2022-12-25T07:29:37.378Z,99194.66
2022-12-25T07:32:16.605Z,99190.38
2022-12-25T07:35:07.265Z,99186.48
2022-12-25T07:37:57.034Z,99181.19
2022-12-25T07:40:37.516Z,99182.08
2022-12-25T07:43:20.805Z,99187.44
2022-12-25T07:46:16.830Z,99182.51
2022-12-25T07:48:56.995Z,99184.15
2022-12-25T07:51:38.174Z,99192.14
2022-12-25T07:54:18.711Z,99204.33
2022-12-25T07:57:03.732Z,99202.73
2022-12-25T07:59:58.033Z,99205.73
2022-12-25T08:02:42.277Z,99205.05
2022-12-25T08:05:20.602Z,99209.82
2022-12-25T08:08:02.273Z,99214.77
2022-12-25T08:10:41.787Z,99211.05
2022-12-25T08:13:22.523Z,99212.25
2022-12-25T08:16:06.789Z,99216.56
2022-12-25T08:18:47.864Z,99214.11
2022-12-25T08:21:27.320Z,99208.14
2022-12-25T08:24:09.294Z,99207.40
2022-12-25T08:26:51.010Z,99207.30
2022-12-25T08:29:35.600Z,99211.66
2022-12-25T08:32:18.650Z,99213.64
2022-12-25T08:35:04.121Z,99216.23
2022-12-25T08:37:41.814Z,99227.83
2022-12-25T08:40:24.895Z,99230.95
2022-12-25T08:43:03.484Z,99231.52
2022-12-25T08:45:49.783Z,99237.48
2022-12-25T08:48:29.240Z,99243.78
2022-12-25T08:51:11.312Z,99247.83
2022-12-25T08:53:49.339Z,99245.93
2022-12-25T08:56:36.500Z,99247.40
2022-12-25T08:59:16.535Z,99260.18
2022-12-25T09:01:55.690Z,99264.51
2022-12-25T09:04:35.725Z,99256.76
2022-12-25T09:07:22.765Z,99249.17
2022-12-25T09:10:01.732Z,99250.55
2022-12-25T09:12:49.756Z,99246.27
2022-12-25T09:15:28.279Z,99243.00
2022-12-25T09:18:13.530Z,99242.27
2022-12-25T09:20:52.968Z,99241.73
2022-12-25T09:23:37.840Z,99237.94
2022-12-25T09:26:18.915Z,99231.46
2022-12-25T09:28:58.841Z,99229.16
2022-12-25T09:31:39.735Z,99228.53
2022-12-25T09:34:19.533Z,99234.76
2022-12-25T09:36:59.702Z,99237.12
2022-12-25T09:39:42.170Z,99233.07
2022-12-25T09:42:41.080Z,99227.96
2022-12-25T09:45:44.091Z,99226.16
2022-12-25T09:48:23.230Z,99225.73
2022-12-25T09:51:14.823Z,99223.05
2022-12-25T09:54:06.078Z,99226.42
2022-12-25T09:56:46.709Z,99228.88
2022-12-25T09:59:32.529Z,99229.41
2022-12-25T10:02:49.926Z,99227.70
2022-12-25T10:06:07.476Z,99229.30
2022-12-25T10:09:26.262Z,99231.03
2022-12-25T10:12:44.025Z,99230.00
2022-12-25T10:15:58.709Z,99231.14
2022-12-25T10:18:57.908Z,99227.13
2022-12-25T10:21:41.082Z,99220.24
2022-12-25T10:24:29.239Z,99214.91
2022-12-25T10:27:22.401Z,99206.66
2022-12-25T10:30:05.119Z,99198.88
2022-12-25T10:33:01.682Z,99187.49
2022-12-25T10:35:43.413Z,99180.02
2022-12-25T10:38:32.490Z,99171.59
2022-12-25T10:41:20.942Z,99169.41
2022-12-25T10:44:03.774Z,99162.70
2022-12-25T10:46:51.785Z,99163.52
2022-12-25T10:49:41.606Z,99167.80
2022-12-25T10:52:39.511Z,99165.01
2022-12-25T10:55:31.101Z,99157.16
2022-12-25T10:58:11.245Z,99157.11
2022-12-25T11:01:06.096Z,99155.80
2022-12-25T11:03:52.293Z,99156.44
2022-12-25T11:06:41.848Z,99155.99
2022-12-25T11:09:24.477Z,99154.27
2022-12-25T11:12:08.833Z,99145.13
2022-12-25T11:15:05.016Z,99137.75
2022-12-25T11:17:56.954Z,99140.20
2022-12-25T11:20:43.782Z,99131.23
2022-12-25T11:23:39.251Z,99120.67
2022-12-25T11:26:26.929Z,99115.94
2022-12-25T11:29:20.968Z,99119.70
2022-12-25T11:32:04.341Z,99111.98
2022-12-25T11:34:54.475Z,99113.11
2022-12-25T11:37:49.915Z,99116.41
2022-12-25T11:40:33.866Z,99120.86
2022-12-25T11:43:40.731Z,99121.98
2022-12-25T11:46:26.866Z,99118.09
2022-12-25T11:49:16.369Z,99115.88
2022-12-25T11:52:03.390Z,99113.44
2022-12-25T11:55:03.539Z,99103.88
2022-12-25T11:57:46.051Z,99088.77
2022-12-25T12:00:28.931Z,99091.56
2022-12-25T12:03:33.988Z,99093.52
2022-12-25T12:06:41.235Z,99101.17
2022-12-25T12:09:35.958Z,99100.54
2022-12-25T12:12:57.915Z,99100.98
2022-12-25T12:15:52.338Z,99109.36
2022-12-25T12:18:37.028Z,99109.39
2022-12-25T12:21:37.944Z,99104.04
2022-12-25T12:24:26.549Z,99099.73
2022-12-25T12:27:18.571Z,99095.27
2022-12-25T12:30:06.582Z,99098.96
2022-12-25T12:32:54.634Z,99103.88
2022-12-25T12:35:41.481Z,99108.98
2022-12-25T12:38:27.897Z,99106.10
2022-12-25T12:41:17.131Z,99105.80
2022-12-25T12:44:14.367Z,99101.84
2022-12-25T12:47:05.101Z,99100.11
2022-12-25T12:49:48.502Z,99090.20
2022-12-25T12:52:41.250Z,99086.91
2022-12-25T12:55:36.583Z,99087.95
2022-12-25T12:58:07.116Z,99093.48
2022-12-25T13:01:17.918Z,99092.15
2022-12-25T13:04:31.880Z,99090.80
2022-12-25T13:07:42.297Z,99084.63
2022-12-25T13:10:27.053Z,99079.79
2022-12-25T13:13:17.115Z,99078.29
2022-12-25T13:16:02.052Z,99074.52
2022-12-25T13:18:47.157Z,99074.95
2022-12-25T13:21:31.894Z,99074.73
2022-12-25T13:24:28.364Z,99075.02
2022-12-25T13:27:46.384Z,99073.19
2022-12-25T13:30:36.865Z,99071.39
2022-12-25T13:33:29.235Z,99065.97
2022-12-25T13:36:27.263Z,99063.65
2022-12-25T13:39:19.370Z,99046.32
2022-12-25T13:42:15.445Z,99021.71
2022-12-25T13:45:02.782Z,99019.54
2022-12-25T13:47:55.471Z,99043.25
2022-12-25T13:50:42.586Z,99045.55
2022-12-25T13:53:32.943Z,99036.31
2022-12-25T13:56:19.340Z,99028.65
2022-12-25T13:59:31.114Z,99030.83
2022-12-25T14:02:27.878Z,99036.67
2022-12-25T14:05:37.662Z,99041.67
2022-12-25T14:08:31.079Z,99042.42
2022-12-25T14:11:16.089Z,99037.61
2022-12-25T14:14:08.122Z,99031.05
2022-12-25T14:16:52.269Z,99026.04
2022-12-25T14:19:31.169Z,99017.19
2022-12-25T14:22:27.468Z,99016.29
2022-12-25T14:25:19.106Z,99014.48
2022-12-25T14:28:03.949Z,99021.45
2022-12-25T14:30:52.101Z,99023.30
2022-12-25T14:33:33.224Z,99017.94
2022-12-25T14:36:18.525Z,99018.67
2022-12-25T14:39:06.428Z,99017.00
2022-12-25T14:41:56.858Z,99013.75
2022-12-25T14:44:49.569Z,99014.23
2022-12-25T14:47:33.277Z,99023.90
2022-12-25T14:50:39.552Z,99024.91
2022-12-25T14:53:25.246Z,99023.33
2022-12-25T14:56:12.093Z,99025.54
2022-12-25T14:58:58.705Z,99018.30
2022-12-25T15:01:48.198Z,99013.14
2022-12-25T15:04:32.261Z,99014.98
2022-12-25T15:07:36.317Z,99022.96
2022-12-25T15:10:58.370Z,99025.46
2022-12-25T15:13:26.810Z,99025.95
2022-12-25T15:16:32.655Z,99019.95
2022-12-25T15:19:40.779Z,99022.59
2022-12-25T15:22:19.547Z,99025.07
2022-12-25T15:25:04.744Z,99031.65
2022-12-25T15:27:44.874Z,99020.25
2022-12-25T15:30:31.318Z,99007.27
2022-12-25T15:33:09.056Z,98995.49
2022-12-25T15:35:53.076Z,98986.98
2022-12-25T15:38:41.767Z,98988.52
2022-12-25T15:41:46.753Z,98986.79
2022-12-25T15:44:31.952Z,98988.87
2022-12-25T15:47:25.159Z,98985.59
2022-12-25T15:50:04.590Z,98986.16
2022-12-25T15:52:46.318Z,98983.89
2022-12-25T15:55:28.254Z,98982.11
2022-12-25T15:58:09.000Z,98986.16
2022-12-25T16:00:49.056Z,98985.05
2022-12-25T16:03:30.742Z,98979.65
2022-12-25T16:06:14.804Z,98973.94
2022-12-25T16:08:56.213Z,98965.73
2022-12-25T16:11:34.614Z,98955.23
2022-12-25T16:14:29.396Z,98945.14
2022-12-25T16:17:11.597Z,98941.05
2022-12-25T16:19:54.163Z,98939.03
2022-12-25T16:22:33.271Z,98944.45
2022-12-25T16:25:28.521Z,98954.20
2022-12-25T16:28:15.382Z,98947.80
2022-12-25T16:30:57.762Z,98944.48
2022-12-25T16:33:39.644Z,98941.84
2022-12-25T16:36:27.066Z,98940.38
2022-12-25T16:39:12.949Z,98941.63
2022-12-25T16:41:58.587Z,98936.33
2022-12-25T16:44:41.745Z,98931.48
2022-12-25T16:47:21.029Z,98924.08
2022-12-25T16:50:06.841Z,98922.74
2022-12-25T16:52:51.494Z,98929.64
2022-12-25T16:55:31.840Z,98933.11
2022-12-25T16:58:20.173Z,98931.06
2022-12-25T17:01:12.417Z,98925.94
2022-12-25T17:04:04.476Z,98917.46
2022-12-25T17:06:47.665Z,98909.63
2022-12-25T17:09:44.807Z,98906.77
2022-12-25T17:12:26.004Z,98893.10
2022-12-25T17:15:20.487Z,98886.65
2022-12-25T17:17:58.971Z,98888.35
2022-12-25T17:20:43.112Z,98889.52
2022-12-25T17:23:40.612Z,98890.18
2022-12-25T17:26:28.349Z,98888.27
2022-12-25T17:29:22.684Z,98879.85
2022-12-25T17:32:04.188Z,98871.14
2022-12-25T17:34:43.810Z,98874.67
2022-12-25T17:37:26.214Z,98879.94
2022-12-25T17:40:08.203Z,98875.06
2022-12-25T17:42:42.104Z,98863.09
2022-12-25T17:45:28.370Z,98856.27
2022-12-25T17:48:10.074Z,98859.41
2022-12-25T17:50:51.859Z,98860.09
2022-12-25T17:53:36.743Z,98865.09
2022-12-25T17:56:22.034Z,98861.19
2022-12-25T17:59:31.034Z,98858.00
2022-12-25T18:02:12.910Z,98852.06
2022-12-25T18:04:55.801Z,98838.38
2022-12-25T18:07:41.291Z,98833.46
2022-12-25T18:10:25.283Z,98827.70
2022-12-25T18:13:16.942Z,98825.20
2022-12-25T18:16:07.366Z,98823.34
2022-12-25T18:18:52.281Z,98819.71
2022-12-25T18:21:40.018Z,98815.29
2022-12-25T18:24:20.950Z,98811.33
2022-12-25T18:27:02.482Z,98807.71
2022-12-25T18:29:40.311Z,98802.39
2022-12-25T18:32:27.833Z,98797.05
2022-12-25T18:35:06.890Z,98793.29
2022-12-25T18:37:52.408Z,98789.14
2022-12-25T18:40:33.329Z,98793.59
2022-12-25T18:43:51.428Z,98790.45
2022-12-25T18:46:24.958Z,98792.48
2022-12-25T18:49:10.843Z,98786.56
2022-12-25T18:51:50.402Z,98789.48
2022-12-25T18:54:32.877Z,98783.61
2022-12-25T18:57:07.857Z,98780.70
2022-12-25T18:59:50.406Z,98774.70
2022-12-25T19:02:31.543Z,98766.10
2022-12-25T19:05:15.968Z,98764.23
2022-12-25T19:07:55.074Z,98761.98
2022-12-25T19:10:36.606Z,98764.05
2022-12-25T19:13:15.162Z,98759.03
2022-12-25T19:15:56.145Z,98757.85
2022-12-25T19:18:39.147Z,98749.95
2022-12-25T19:21:22.101Z,98746.89
2022-12-25T19:24:00.237Z,98736.73
2022-12-25T19:26:50.736Z,98729.50
2022-12-25T19:29:29.117Z,98720.70
2022-12-25T19:32:18.010Z,98713.25
2022-12-25T19:34:57.526Z,98700.65
2022-12-25T19:37:44.516Z,98689.27
2022-12-25T19:40:27.900Z,98673.55
2022-12-25T19:43:20.998Z,98664.91
2022-12-25T19:46:03.319Z,98681.66
2022-12-25T19:48:50.603Z,98696.33
2022-12-25T19:51:32.009Z,98703.39
2022-12-25T19:54:15.621Z,98702.89
2022-12-25T19:57:01.928Z,98705.17
2022-12-25T19:59:42.124Z,98700.40
2022-12-25T20:02:27.261Z,98696.00
2022-12-25T20:05:10.966Z,98693.50
2022-12-25T20:07:52.963Z,98695.63
2022-12-25T20:10:32.684Z,98693.23
2022-12-25T20:13:14.777Z,98693.90
2022-12-25T20:16:00.305Z,98690.08
2022-12-25T20:18:44.684Z,98685.58
2022-12-25T20:21:27.898Z,98678.83
2022-12-25T20:24:12.935Z,98670.71
2022-12-25T20:27:01.615Z,98667.27
2022-12-25T20:29:40.610Z,98655.03
2022-12-25T20:32:18.823Z,98645.25
2022-12-25T20:35:02.478Z,98636.64
2022-12-25T20:37:44.198Z,98632.34
2022-12-25T20:40:27.598Z,98617.64
2022-12-25T20:43:10.411Z,98601.41
2022-12-25T20:46:02.756Z,98593.84
2022-12-25T20:48:46.857Z,98598.17
2022-12-25T20:51:37.136Z,98608.72
2022-12-25T20:54:14.697Z,98622.88
2022-12-25T20:56:51.700Z,98623.41
2022-12-25T20:59:37.983Z,98638.77
2022-12-25T21:02:35.338Z,98642.88
2022-12-25T21:05:20.964Z,98638.86
2022-12-25T21:08:00.096Z,98641.76
2022-12-25T21:10:41.169Z,98635.73
2022-12-25T21:13:19.631Z,98630.61
2022-12-25T21:16:09.349Z,98629.96
2022-12-25T21:18:51.377Z,98626.55
2022-12-25T21:21:34.263Z,98615.15
2022-12-25T21:24:12.657Z,98604.27
2022-12-25T21:27:06.356Z,98597.56
2022-12-25T21:29:45.248Z,98594.77
2022-12-25T21:33:09.456Z,98595.48
2022-12-25T21:35:49.056Z,98588.06
2022-12-25T21:38:25.393Z,98589.97
2022-12-25T21:41:14.009Z,98596.08
2022-12-25T21:43:58.960Z,98588.17
2022-12-25T21:46:39.390Z,98588.38
2022-12-25T21:49:41.021Z,98591.14
2022-12-25T21:52:20.029Z,98589.58
2022-12-25T21:55:05.419Z,98593.41
2022-12-25T21:57:53.271Z,98601.88
2022-12-25T22:00:34.456Z,98602.43
2022-12-25T22:03:13.444Z,98609.34
2022-12-25T22:06:19.267Z,98607.78
2022-12-25T22:09:06.633Z,98609.48
2022-12-25T22:12:06.873Z,98606.21
2022-12-25T22:14:57.252Z,98606.71
2022-12-25T22:18:02.055Z,98603.27
2022-12-25T22:20:45.988Z,98599.31
2022-12-25T22:23:35.798Z,98596.23
2022-12-25T22:26:20.487Z,98592.80
2022-12-25T22:29:08.419Z,98583.66
2022-12-25T22:31:47.815Z,98567.95
2022-12-25T22:34:32.692Z,98563.96
2022-12-25T22:37:20.508Z,98554.80
2022-12-25T22:40:03.895Z,98551.32
2022-12-25T22:42:43.402Z,98554.77
2022-12-25T22:45:26.871Z,98549.59
2022-12-25T22:48:07.878Z,98544.24
2022-12-25T22:50:54.420Z,98544.27
2022-12-25T22:53:35.562Z,98546.52
2022-12-25T22:56:23.211Z,98552.73
2022-12-25T22:58:56.900Z,98551.17
2022-12-25T23:01:37.110Z,98551.85
2022-12-25T23:04:20.524Z,98546.31
2022-12-25T23:07:05.614Z,98544.77
2022-12-25T23:09:48.263Z,98546.69
2022-12-25T23:12:47.525Z,98537.70
2022-12-25T23:15:35.455Z,98534.61
2022-12-25T23:18:31.918Z,98529.76
2022-12-25T23:21:35.911Z,98525.10
2022-12-25T23:24:43.398Z,98527.02
2022-12-25T23:27:23.897Z,98520.48
2022-12-25T23:30:10.401Z,98525.00
2022-12-25T23:32:57.480Z,98519.00
2022-12-25T23:35:38.982Z,98522.31
2022-12-25T23:38:18.990Z,98515.74
2022-12-25T23:41:04.095Z,98514.36
2022-12-25T23:43:51.000Z,98505.35
2022-12-25T23:46:35.616Z,98495.50
2022-12-25T23:49:17.001Z,98498.77
2022-12-25T23:51:58.260Z,98505.01
2022-12-25T23:54:36.076Z,98519.19
2022-12-25T23:57:16.791Z,98530.57
2022-12-25T23:59:58.692Z,98528.82
